sensor_id;sensor_type;location;lat;lon;timestamp;pressure;altitude;pressure_sealevel;temperature;humidity
45939;BME280;31650;48.818;9.116;2023-03-04T00:14:33;98516.91;;;-1.75;100.00
45939;BME280;31650;48.818;9.116;2023-03-04T00:29:33;98531.91;;;-1.95;100.00
45939;BME280;31650;48.818;9.116;2023-03-04T00:44:33;98532.03;;;-2.28;100.00
45939;BME280;31650;48.818;9.116;2023-03-04T00:59:33;98530.75;;;-2.57;100.00
45939;BME280;31650;48.818;9.116;2023-03-04T01:14:34;98520.84;;;-2.66;100.00
45939;BME280;31650;48.818;9.116;2023-03-04T01:29:34;98521.94;;;-2.80;100.00
45939;BME280;31650;48.818;9.116;2023-03-04T01:44:34;98512.91;;;-3.00;100.00
45939;BME280;31650;48.818;9.116;2023-03-04T01:59:35;98510.34;;;-3.01;100.00
45939;BME280;31650;48.818;9.116;2023-03-04T02:14:35;98503.69;;;-2.84;100.00
45939;BME280;31650;48.818;9.116;2023-03-04T02:29:35;98501.22;;;-2.65;100.00
45939;BME280;31650;48.818;9.116;2023-03-04T02:44:40;98503.09;;;-2.88;100.00
45939;BME280;31650;48.818;9.116;2023-03-04T02:59:42;98507.31;;;-2.96;100.00
45939;BME280;31650;48.818;9.116;2023-03-04T03:14:42;98500.94;;;-3.16;100.00
45939;BME280;31650;48.818;9.116;2023-03-04T03:29:43;98498.13;;;-3.37;100.00
45939;BME280;31650;48.818;9.116;2023-03-04T03:44:43;98497.63;;;-3.54;100.00
45939;BME280;31650;48.818;9.116;2023-03-04T03:59:43;98503.28;;;-3.70;100.00
45939;BME280;31650;48.818;9.116;2023-03-04T04:14:43;98510.56;;;-3.96;100.00
45939;BME280;31650;48.818;9.116;2023-03-04T04:29:44;98506.53;;;-4.13;100.00
45939;BME280;31650;48.818;9.116;2023-03-04T04:44:44;98513.84;;;-4.28;100.00
45939;BME280;31650;48.818;9.116;2023-03-04T04:59:44;98511.84;;;-4.13;100.00
45939;BME280;31650;48.818;9.116;2023-03-04T05:14:44;98522.72;;;-4.04;100.00
45939;BME280;31650;48.818;9.116;2023-03-04T05:29:44;98538.81;;;-4.30;100.00
45939;BME280;31650;48.818;9.116;2023-03-04T05:44:45;98540.41;;;-4.40;100.00
45939;BME280;31650;48.818;9.116;2023-03-04T05:59:46;98550.34;;;-4.31;100.00
45939;BME280;31650;48.818;9.116;2023-03-04T06:14:46;98548.88;;;-4.59;100.00
45939;BME280;31650;48.818;9.116;2023-03-04T06:29:46;98574.59;;;-3.88;100.00
45939;BME280;31650;48.818;9.116;2023-03-04T06:44:47;98581.78;;;-3.30;100.00
45939;BME280;31650;48.818;9.116;2023-03-04T06:59:47;98587.34;;;-2.43;100.00
45939;BME280;31650;48.818;9.116;2023-03-04T07:14:47;98591.81;;;-1.78;100.00
45939;BME280;31650;48.818;9.116;2023-03-04T07:29:48;98597.72;;;-1.42;100.00
45939;BME280;31650;48.818;9.116;2023-03-04T07:44:49;98610.59;;;-1.26;100.00
45939;BME280;31650;48.818;9.116;2023-03-04T07:59:49;98622.94;;;-1.04;100.00
45939;BME280;31650;48.818;9.116;2023-03-04T08:14:50;98622.88;;;-0.72;100.00
45939;BME280;31650;48.818;9.116;2023-03-04T08:29:50;98636.50;;;-0.65;100.00
45939;BME280;31650;48.818;9.116;2023-03-04T08:44:50;98656.34;;;-0.58;100.00
45939;BME280;31650;48.818;9.116;2023-03-04T08:59:50;98644.63;;;0.05;100.00
45939;BME280;31650;48.818;9.116;2023-03-04T09:14:51;98651.13;;;0.12;100.00
45939;BME280;31650;48.818;9.116;2023-03-04T09:29:51;98649.06;;;0.35;100.00
45939;BME280;31650;48.818;9.116;2023-03-04T09:44:51;98631.00;;;1.15;100.00
45939;BME280;31650;48.818;9.116;2023-03-04T10:00:08;98622.03;;;2.08;100.00
45939;BME280;31650;48.818;9.116;2023-03-04T10:15:20;98617.47;;;1.91;100.00
45939;BME280;31650;48.818;9.116;2023-03-04T10:45:40;98604.28;;;2.43;88.27
45939;BME280;31650;48.818;9.116;2023-03-04T11:00:41;98587.13;;;2.36;87.73
45939;BME280;31650;48.818;9.116;2023-03-04T11:30:53;98562.81;;;2.20;86.23
45939;BME280;31650;48.818;9.116;2023-03-04T12:01:07;98543.81;;;2.31;84.53
45939;BME280;31650;48.818;9.116;2023-03-04T12:31:33;98509.38;;;2.08;90.39
45939;BME280;31650;48.818;9.116;2023-03-04T13:01:36;98470.59;;;1.85;92.64
45939;BME280;31650;48.818;9.116;2023-03-04T13:16:39;98483.63;;;1.80;90.77
45939;BME280;31650;48.818;9.116;2023-03-04T13:47:06;98479.13;;;1.98;86.71
45939;BME280;31650;48.818;9.116;2023-03-04T14:17:14;98457.50;;;2.18;87.24
45939;BME280;31650;48.818;9.116;2023-03-04T14:32:16;98447.47;;;1.84;87.75
45939;BME280;31650;48.818;9.116;2023-03-04T15:02:39;98428.56;;;1.67;92.61
45939;BME280;31650;48.818;9.116;2023-03-04T15:17:40;98423.13;;;1.77;93.08
45939;BME280;31650;48.818;9.116;2023-03-04T15:32:41;98426.88;;;1.84;93.89
45939;BME280;31650;48.818;9.116;2023-03-04T15:47:41;98431.03;;;1.79;94.95
45939;BME280;31650;48.818;9.116;2023-03-04T16:02:42;98413.38;;;1.94;96.87
45939;BME280;31650;48.818;9.116;2023-03-04T16:17:42;98422.97;;;1.79;97.91
45939;BME280;31650;48.818;9.116;2023-03-04T16:32:43;98417.25;;;1.74;98.58
45939;BME280;31650;48.818;9.116;2023-03-04T16:47:43;98420.44;;;1.59;100.00
45939;BME280;31650;48.818;9.116;2023-03-04T17:02:44;98421.28;;;1.60;100.00
45939;BME280;31650;48.818;9.116;2023-03-04T17:17:45;98421.34;;;1.68;100.00
45939;BME280;31650;48.818;9.116;2023-03-04T17:32:45;98429.00;;;1.63;100.00
45939;BME280;31650;48.818;9.116;2023-03-04T17:47:45;98428.69;;;1.66;100.00
45939;BME280;31650;48.818;9.116;2023-03-04T18:02:46;98433.84;;;1.59;100.00
45939;BME280;31650;48.818;9.116;2023-03-04T18:17:46;98430.78;;;1.54;100.00
45939;BME280;31650;48.818;9.116;2023-03-04T18:32:47;98407.81;;;1.52;100.00
45939;BME280;31650;48.818;9.116;2023-03-04T18:47:48;98404.66;;;1.56;100.00
45939;BME280;31650;48.818;9.116;2023-03-04T19:02:57;98410.56;;;1.60;100.00
45939;BME280;31650;48.818;9.116;2023-03-04T19:17:59;98398.06;;;1.51;100.00
45939;BME280;31650;48.818;9.116;2023-03-04T19:32:59;98391.63;;;1.43;100.00
45939;BME280;31650;48.818;9.116;2023-03-04T19:48:00;98389.19;;;1.50;100.00
45939;BME280;31650;48.818;9.116;2023-03-04T20:03:01;98397.75;;;1.54;100.00
45939;BME280;31650;48.818;9.116;2023-03-04T20:18:06;98386.75;;;1.75;100.00
45939;BME280;31650;48.818;9.116;2023-03-04T20:33:06;98380.41;;;1.76;100.00
45939;BME280;31650;48.818;9.116;2023-03-04T20:48:07;98359.09;;;1.74;100.00
45939;BME280;31650;48.818;9.116;2023-03-04T21:03:07;98344.53;;;1.77;100.00
45939;BME280;31650;48.818;9.116;2023-03-04T21:18:07;98353.88;;;1.73;100.00
45939;BME280;31650;48.818;9.116;2023-03-04T21:33:17;98344.72;;;1.57;100.00
45939;BME280;31650;48.818;9.116;2023-03-04T21:48:18;98342.13;;;1.47;100.00
45939;BME280;31650;48.818;9.116;2023-03-04T22:03:18;98329.56;;;1.48;100.00
45939;BME280;31650;48.818;9.116;2023-03-04T22:18:19;98323.75;;;1.53;100.00
45939;BME280;31650;48.818;9.116;2023-03-04T22:33:19;98309.56;;;1.60;100.00
45939;BME280;31650;48.818;9.116;2023-03-04T22:48:19;98291.03;;;1.67;100.00
45939;BME280;31650;48.818;9.116;2023-03-04T23:03:19;98291.78;;;1.77;100.00
45939;BME280;31650;48.818;9.116;2023-03-04T23:18:19;98281.09;;;1.59;100.00
